Time;durP1;ratioP1;P1;durP2;ratioP2;P2;SDS_P1;SDS_P2;PMS_P1;PMS_P2;Temp;Humidity;BMP_temperature;BMP_pressure;BME280_temperature;BME280_humidity;BME280_pressure;Samples;Min_cycle;Max_cycle;Signal;HPM_P1;HPM_P2
2024/01/11 00:00:33;;;;;;;48.97;21.87;;;-1.40;99.90;;;;;;7296118;19;20185;-86
2024/01/11 00:02:59;;;;;;;45.07;20.67;;;-1.40;99.90;;;;;;7274681;19;20198;-85
2024/01/11 00:05:25;;;;;;;45.37;19.73;;;-1.40;99.90;;;;;;7282547;19;20986;-86
2024/01/11 00:07:51;;;;;;;44.33;19.53;;;-1.60;99.90;;;;;;7293090;19;20631;-86
2024/01/11 00:10:16;;;;;;;44.83;20.37;;;-1.70;99.90;;;;;;7297339;19;20200;-85
2024/01/11 00:12:42;;;;;;;43.67;18.87;;;-1.70;99.90;;;;;;7294660;19;20176;-86
2024/01/11 00:15:08;;;;;;;41.43;19.97;;;-1.90;99.90;;;;;;7303767;19;20288;-86
2024/01/11 00:17:34;;;;;;;42.03;20.33;;;-2.00;99.90;;;;;;7318591;19;20186;-85
2024/01/11 00:20:02;;;;;;;43.03;19.23;;;-1.90;99.90;;;;;;7295149;19;20205;-85
2024/01/11 00:22:28;;;;;;;43.73;19.27;;;-1.80;99.90;;;;;;7296525;19;20206;-85
2024/01/11 00:24:54;;;;;;;42.57;20.30;;;-1.60;99.90;;;;;;7295470;19;20184;-87
2024/01/11 00:27:21;;;;;;;48.70;21.33;;;-1.50;99.90;;;;;;7297505;19;20199;-86
2024/01/11 00:29:47;;;;;;;42.40;19.53;;;-1.40;99.90;;;;;;7296025;19;20195;-85
2024/01/11 00:32:12;;;;;;;45.70;20.33;;;-1.40;99.90;;;;;;7296745;19;20218;-86
2024/01/11 00:34:38;;;;;;;43.60;20.53;;;-1.40;99.90;;;;;;7309242;19;20192;-86
2024/01/11 00:37:04;;;;;;;47.43;21.70;;;-1.30;99.90;;;;;;7321711;19;20189;-85
2024/01/11 00:39:30;;;;;;;42.63;19.83;;;-1.20;99.90;;;;;;7302143;19;20217;-88
2024/01/11 00:41:56;;;;;;;48.30;21.90;;;-1.20;99.90;;;;;;7308899;19;20188;-86
2024/01/11 00:44:23;;;;;;;42.93;20.50;;;-1.20;99.90;;;;;;7308977;19;20429;-86
2024/01/11 00:46:49;;;;;;;44.80;20.20;;;-1.30;99.90;;;;;;7307731;19;20200;-86
2024/01/11 00:49:14;;;;;;;45.20;21.07;;;-1.40;99.90;;;;;;7303995;19;20724;-86
2024/01/11 00:51:40;;;;;;;40.63;20.53;;;-1.30;99.90;;;;;;7303664;19;20323;-85
2024/01/11 00:54:06;;;;;;;44.73;20.53;;;-1.10;99.90;;;;;;7321424;19;20180;-86
2024/01/11 00:56:32;;;;;;;40.33;19.90;;;-1.20;99.90;;;;;;7299388;19;20217;-86
2024/01/11 00:58:57;;;;;;;44.03;20.23;;;-1.30;99.90;;;;;;7297057;19;20210;-85
2024/01/11 01:01:23;;;;;;;43.87;19.90;;;-1.30;99.90;;;;;;7295838;19;20181;-86
2024/01/11 01:03:49;;;;;;;45.13;20.63;;;-1.30;99.90;;;;;;7294610;19;20199;-86
2024/01/11 01:06:15;;;;;;;41.90;19.63;;;-1.40;99.90;;;;;;7295972;19;20189;-86
2024/01/11 01:08:40;;;;;;;45.40;19.60;;;-1.40;99.90;;;;;;7297841;19;20189;-86
2024/01/11 01:11:06;;;;;;;44.97;21.20;;;-1.30;99.90;;;;;;7322243;19;20287;-86
2024/01/11 01:13:32;;;;;;;44.97;20.60;;;-1.30;99.90;;;;;;7298582;19;20185;-86
2024/01/11 01:15:58;;;;;;;45.10;19.37;;;-1.20;99.90;;;;;;7308741;19;20181;-87
2024/01/11 01:18:24;;;;;;;44.93;19.93;;;-1.40;99.90;;;;;;7294505;19;20189;-86
2024/01/11 01:20:50;;;;;;;45.20;20.80;;;-1.50;99.90;;;;;;7292858;19;20279;-86
2024/01/11 01:23:16;;;;;;;42.47;19.80;;;-1.40;99.90;;;;;;7292416;19;20197;-86
2024/01/11 01:25:42;;;;;;;45.47;20.40;;;-1.40;99.90;;;;;;7290555;19;20640;-86
2024/01/11 01:28:08;;;;;;;47.33;20.43;;;-1.50;99.90;;;;;;7303397;19;20185;-84
2024/01/11 01:30:34;;;;;;;46.43;19.73;;;-1.60;99.90;;;;;;7313666;19;20181;-86
2024/01/11 01:33:00;;;;;;;47.27;20.53;;;-1.70;99.90;;;;;;7290800;19;20192;-86
2024/01/11 01:35:26;;;;;;;47.30;20.43;;;-1.80;99.90;;;;;;7291795;19;20189;-86
2024/01/11 01:37:52;;;;;;;44.37;19.97;;;-1.80;99.90;;;;;;7291956;19;20196;-85
2024/01/11 01:40:18;;;;;;;46.07;19.20;;;-2.00;99.90;;;;;;7289967;19;20268;-86
2024/01/11 01:42:45;;;;;;;48.47;21.40;;;-2.00;99.90;;;;;;7291638;19;20594;-85
2024/01/11 01:45:11;;;;;;;43.93;19.80;;;-1.90;99.90;;;;;;7291322;19;20229;-86
2024/01/11 01:47:41;;;;;;;42.37;19.80;;;-1.70;99.90;;;;;;7312611;19;20202;-87
2024/01/11 01:50:10;;;;;;;42.77;20.10;;;-1.70;99.90;;;;;;7290309;19;20295;-86
2024/01/11 01:52:38;;;;;;;43.37;18.33;;;-1.80;99.90;;;;;;7312799;19;20185;-86
2024/01/11 01:55:05;;;;;;;46.83;20.73;;;-1.90;99.90;;;;;;7293174;19;20204;-87
2024/01/11 01:57:34;;;;;;;47.53;20.50;;;-2.00;99.90;;;;;;7292062;19;20195;-86
2024/01/11 02:00:01;;;;;;;44.17;20.00;;;-1.90;99.90;;;;;;7288940;19;20195;-86
2024/01/11 02:02:30;;;;;;;42.67;19.13;;;-1.80;99.90;;;;;;7289355;19;20199;-87
2024/01/11 02:04:56;;;;;;;42.80;19.70;;;-1.70;99.90;;;;;;7292468;19;20181;-87
2024/01/11 02:07:24;;;;;;;46.83;21.10;;;-1.70;99.90;;;;;;7289008;19;20201;-87
2024/01/11 02:09:51;;;;;;;44.30;20.10;;;-1.70;99.90;;;;;;7291191;19;20189;-87
2024/01/11 02:12:17;;;;;;;44.73;19.27;;;-1.80;99.90;;;;;;7291057;19;20188;-86
2024/01/11 02:14:44;;;;;;;46.40;19.37;;;-1.80;99.90;;;;;;7290645;19;20184;-86
2024/01/11 02:17:11;;;;;;;48.07;20.97;;;-1.80;99.90;;;;;;7292116;19;20328;-86
2024/01/11 02:19:36;;;;;;;47.10;20.40;;;-1.70;99.90;;;;;;7312793;19;20181;-86
2024/01/11 02:22:22;;;;;;;47.00;20.43;;;-1.70;99.90;;;;;;7290258;19;20236;-86
2024/01/11 02:24:48;;;;;;;39.63;18.93;;;-1.80;99.90;;;;;;7186031;19;2004465;-86
2024/01/11 02:27:14;;;;;;;48.47;20.13;;;-1.80;99.90;;;;;;7285924;19;20639;-86
2024/01/11 02:29:40;;;;;;;42.63;19.37;;;-1.80;99.90;;;;;;7288917;19;20253;-86
2024/01/11 02:32:06;;;;;;;50.57;20.60;;;-1.80;99.90;;;;;;7311178;19;20796;-86
2024/01/11 02:34:33;;;;;;;43.90;19.97;;;-1.70;99.90;;;;;;7288508;19;20177;-86
2024/01/11 02:36:58;;;;;;;45.63;20.80;;;-1.70;99.90;;;;;;7290369;19;20223;-86
2024/01/11 02:39:25;;;;;;;45.53;19.97;;;-1.80;99.90;;;;;;7290375;19;20691;-86
2024/01/11 02:41:53;;;;;;;43.03;19.90;;;-2.10;99.90;;;;;;7356018;19;20691;-87
2024/01/11 02:44:18;;;;;;;44.83;19.70;;;-2.20;99.90;;;;;;7404715;19;20172;-85
2024/01/11 02:46:44;;;;;;;41.07;19.37;;;-2.30;99.90;;;;;;7344183;19;20244;-87
2024/01/11 02:49:10;;;;;;;44.37;19.53;;;-2.40;99.90;;;;;;7296511;19;20189;-86
2024/01/11 02:51:36;;;;;;;44.33;20.77;;;-2.30;99.90;;;;;;7312265;19;20185;-87
2024/01/11 02:54:02;;;;;;;45.90;20.27;;;-2.10;99.90;;;;;;7288903;19;20185;-87
2024/01/11 02:56:28;;;;;;;49.87;20.77;;;-2.00;99.90;;;;;;7290497;19;20780;-87
2024/01/11 02:58:54;;;;;;;41.43;19.57;;;-1.90;99.90;;;;;;7290188;19;20203;-87
2024/01/11 03:01:20;;;;;;;43.90;20.20;;;-1.80;99.90;;;;;;7290766;19;20192;-87
2024/01/11 03:03:46;;;;;;;44.50;21.20;;;-1.80;99.90;;;;;;7291459;19;20209;-87
2024/01/11 03:06:11;;;;;;;47.67;22.07;;;-1.80;99.90;;;;;;7289663;19;20188;-88
2024/01/11 03:08:37;;;;;;;46.50;21.40;;;-1.80;99.90;;;;;;7311155;19;20188;-85
2024/01/11 03:11:03;;;;;;;41.73;19.77;;;-1.80;99.90;;;;;;7290230;19;20189;-87
2024/01/11 03:13:29;;;;;;;48.83;20.73;;;-1.80;99.90;;;;;;7289794;19;20174;-87
2024/01/11 03:15:57;;;;;;;41.83;20.83;;;-1.80;99.90;;;;;;7290419;19;20244;-86
2024/01/11 03:18:23;;;;;;;47.57;20.87;;;-1.90;99.90;;;;;;7290803;19;20255;-87
2024/01/11 03:20:48;;;;;;;45.23;21.13;;;-1.90;99.90;;;;;;7289743;19;20197;-87
2024/01/11 03:23:14;;;;;;;47.20;22.07;;;-1.90;99.90;;;;;;7290035;19;20192;-87
2024/01/11 03:25:40;;;;;;;42.80;19.90;;;-2.10;99.90;;;;;;7288087;19;20537;-87
2024/01/11 03:28:06;;;;;;;39.33;20.07;;;-2.30;99.90;;;;;;7309074;19;20216;-87
2024/01/11 03:30:32;;;;;;;48.83;21.53;;;-2.30;99.90;;;;;;7289569;19;20180;-86
2024/01/11 03:32:58;;;;;;;44.03;20.50;;;-2.20;99.90;;;;;;7290086;19;20198;-86
2024/01/11 03:35:24;;;;;;;47.23;21.23;;;-2.30;99.90;;;;;;7292002;19;20539;-87
2024/01/11 03:37:49;;;;;;;43.77;20.57;;;-2.30;99.90;;;;;;7289596;19;20192;-87
2024/01/11 03:40:15;;;;;;;42.60;20.50;;;-2.40;99.90;;;;;;7289279;19;20244;-87
2024/01/11 03:42:43;;;;;;;42.83;20.00;;;-2.60;99.90;;;;;;7289449;19;20195;-87
2024/01/11 03:45:09;;;;;;;50.23;21.67;;;-2.70;99.90;;;;;;7306711;19;20963;-87
2024/01/11 03:47:34;;;;;;;43.33;20.00;;;-2.50;99.90;;;;;;7315145;19;20188;-88
2024/01/11 03:50:00;;;;;;;44.37;21.23;;;-2.50;99.90;;;;;;7302166;19;20196;-87
2024/01/11 03:52:26;;;;;;;46.60;21.20;;;-2.50;99.90;;;;;;7301854;19;20185;-86
2024/01/11 03:54:52;;;;;;;43.03;20.33;;;-2.30;99.90;;;;;;7306231;19;20181;-86
2024/01/11 03:57:18;;;;;;;50.60;22.10;;;-2.10;99.90;;;;;;7310608;19;20208;-86
2024/01/11 03:59:44;;;;;;;45.87;19.80;;;-2.20;99.90;;;;;;7304273;19;20191;-85
2024/01/11 04:02:10;;;;;;;45.43;20.47;;;-2.20;99.90;;;;;;7291900;19;20192;-86
2024/01/11 04:04:36;;;;;;;47.27;21.10;;;-2.30;99.90;;;;;;7311879;19;20247;-86
2024/01/11 04:07:02;;;;;;;46.57;20.60;;;-2.20;99.90;;;;;;7287322;19;20176;-86
2024/01/11 04:09:28;;;;;;;47.17;21.90;;;-2.10;99.90;;;;;;7290843;19;20358;-86
2024/01/11 04:11:54;;;;;;;45.07;21.43;;;-2.10;99.90;;;;;;7291120;19;20184;-87
2024/01/11 04:14:20;;;;;;;47.73;21.20;;;-2.10;99.90;;;;;;7292250;19;20195;-86
2024/01/11 04:16:46;;;;;;;47.53;21.53;;;-2.20;99.90;;;;;;7292415;19;20181;-86
2024/01/11 04:19:12;;;;;;;50.95;26.35;;;-2.20;99.90;;;;;;7299180;19;20679;-86
2024/01/11 04:21:41;;;;;;;47.50;22.70;;;-2.30;99.90;;;;;;7315280;19;20196;-86
2024/01/11 04:24:07;;;;;;;43.90;20.60;;;-2.20;99.90;;;;;;7310958;19;20653;-86
2024/01/11 04:26:33;;;;;;;44.57;21.50;;;-2.10;99.90;;;;;;7285117;19;20275;-86
2024/01/11 04:28:59;;;;;;;45.53;20.70;;;-2.10;99.90;;;;;;7286161;19;20221;-86
2024/01/11 04:31:26;;;;;;;46.67;21.63;;;-2.10;99.90;;;;;;7287828;19;20188;-87
2024/01/11 04:33:52;;;;;;;42.47;19.83;;;-2.20;99.90;;;;;;7287952;19;20535;-87
2024/01/11 04:36:17;;;;;;;43.33;20.07;;;-2.20;99.90;;;;;;7289012;19;20192;-84
2024/01/11 04:38:44;;;;;;;45.20;21.63;;;-2.30;99.90;;;;;;7286844;19;20234;-86
2024/01/11 04:41:13;;;;;;;45.70;20.30;;;-2.30;99.90;;;;;;7286961;19;20215;-86
2024/01/11 04:43:40;;;;;;;52.23;21.83;;;-2.20;99.90;;;;;;7300161;19;20202;-86
2024/01/11 04:46:19;;;;;;;48.20;21.83;;;-2.10;99.90;;;;;;7311944;19;20191;-88
2024/01/11 04:48:46;;;;;;;48.37;21.33;;;-2.20;99.90;;;;;;7183222;19;2004452;-86
2024/01/11 04:51:13;;;;;;;47.20;21.67;;;-2.30;99.90;;;;;;7284020;19;20248;-87
2024/01/11 04:53:43;;;;;;;46.90;22.03;;;-2.30;99.90;;;;;;7293683;19;20176;-86
2024/01/11 04:56:14;;;;;;;50.57;22.07;;;-2.30;99.90;;;;;;7298237;19;20194;-86
2024/01/11 04:58:41;;;;;;;49.40;21.27;;;-2.30;99.90;;;;;;7292938;19;20184;-87
2024/01/11 05:01:12;;;;;;;53.17;23.10;;;-2.30;99.90;;;;;;7309571;19;20198;-87
2024/01/11 05:03:38;;;;;;;52.33;21.63;;;-2.20;99.90;;;;;;7286473;19;20191;-86
2024/01/11 05:06:04;;;;;;;46.00;21.97;;;-2.20;99.90;;;;;;7297432;19;20196;-86
2024/01/11 05:08:30;;;;;;;44.40;21.37;;;-2.20;99.90;;;;;;7286977;19;20193;-87
2024/01/11 05:10:56;;;;;;;52.40;22.40;;;-2.20;99.90;;;;;;7285858;19;20193;-87
2024/01/11 05:13:22;;;;;;;52.80;23.53;;;-2.10;99.90;;;;;;7283336;19;20493;-87
2024/01/11 05:15:48;;;;;;;57.03;22.77;;;-2.00;99.90;;;;;;7285348;19;20181;-87
2024/01/11 05:18:14;;;;;;;51.20;22.20;;;-1.90;99.90;;;;;;7285807;19;20181;-87
2024/01/11 05:20:40;;;;;;;43.90;21.67;;;-1.90;99.90;;;;;;7291905;19;20185;-87
2024/01/11 05:23:06;;;;;;;46.27;21.23;;;-1.90;99.90;;;;;;7309380;19;20189;-87
2024/01/11 05:25:33;;;;;;;45.30;21.23;;;-2.10;99.90;;;;;;7286372;19;20191;-87
2024/01/11 05:28:00;;;;;;;49.93;20.10;;;-2.20;99.90;;;;;;7286750;19;20210;-87
2024/01/11 05:30:27;;;;;;;47.73;21.70;;;-2.30;99.90;;;;;;7287044;19;20215;-87
2024/01/11 05:32:53;;;;;;;47.20;22.67;;;-2.30;99.90;;;;;;7286397;19;20196;-84
2024/01/11 05:35:19;;;;;;;46.80;21.67;;;-2.30;99.90;;;;;;7291504;19;20203;-88
2024/01/11 05:37:44;;;;;;;47.50;20.80;;;-2.30;99.90;;;;;;7293975;19;20188;-86
2024/01/11 05:40:11;;;;;;;49.53;22.00;;;-2.30;99.90;;;;;;7295049;19;20199;-87
2024/01/11 05:42:37;;;;;;;45.93;21.50;;;-2.40;99.90;;;;;;7317288;19;20189;-83
2024/01/11 05:45:06;;;;;;;42.57;21.20;;;-2.40;99.90;;;;;;7293145;19;20184;-85
2024/01/11 05:47:32;;;;;;;45.23;21.43;;;-2.40;99.90;;;;;;7293039;19;20197;-88
2024/01/11 05:49:58;;;;;;;45.00;21.73;;;-2.40;99.90;;;;;;7304761;19;20204;-89
2024/01/11 05:52:24;;;;;;;47.13;22.67;;;-2.40;99.90;;;;;;7315732;19;20188;-87
2024/01/11 05:54:50;;;;;;;46.23;21.70;;;-2.40;99.90;;;;;;7299764;19;20711;-87
2024/01/11 05:57:16;;;;;;;53.13;22.63;;;-2.50;99.90;;;;;;7292234;19;20317;-84
2024/01/11 05:59:45;;;;;;;47.50;21.73;;;-2.40;99.90;;;;;;7293530;19;20212;-89
2024/01/11 06:02:12;;;;;;;43.03;21.20;;;-2.30;99.90;;;;;;7294884;19;20183;-90
2024/01/11 06:04:38;;;;;;;48.57;23.83;;;-2.30;99.90;;;;;;7315198;19;21447;-88
2024/01/11 06:07:04;;;;;;;48.97;22.30;;;-2.40;99.90;;;;;;7294427;19;20193;-87
2024/01/11 06:09:29;;;;;;;48.83;22.90;;;-2.60;99.90;;;;;;7293465;19;20206;-82
2024/01/11 06:11:55;;;;;;;43.63;22.00;;;-2.70;99.90;;;;;;7289413;19;20648;-83
2024/01/11 06:14:22;;;;;;;48.90;23.07;;;-2.80;99.90;;;;;;7286290;19;20189;-85
2024/01/11 06:16:47;;;;;;;45.20;20.07;;;-2.70;99.90;;;;;;7284567;19;20264;-85
2024/01/11 06:19:13;;;;;;;46.80;21.10;;;-2.70;99.90;;;;;;7285063;19;20184;-86
2024/01/11 06:21:39;;;;;;;48.03;21.53;;;-2.60;99.90;;;;;;7305017;19;20644;-84
2024/01/11 06:24:05;;;;;;;43.73;20.83;;;-2.60;99.90;;;;;;7300097;19;20198;-85
2024/01/11 06:26:30;;;;;;;43.93;21.40;;;-2.40;99.90;;;;;;7287204;19;20321;-86
2024/01/11 06:28:56;;;;;;;42.67;20.47;;;-2.50;99.90;;;;;;7289350;19;20193;-85
2024/01/11 06:31:22;;;;;;;47.20;22.47;;;-2.50;99.90;;;;;;7287217;19;20707;-79
2024/01/11 06:33:48;;;;;;;51.60;22.43;;;-2.50;99.90;;;;;;7286284;19;20195;-85
2024/01/11 06:36:14;;;;;;;51.77;22.83;;;-2.50;99.90;;;;;;7288285;19;20678;-86
2024/01/11 06:38:40;;;;;;;54.00;25.63;;;-2.40;99.90;;;;;;7302652;19;20249;-84
2024/01/11 06:41:05;;;;;;;60.97;27.20;;;-2.30;99.90;;;;;;7313081;19;20252;-89
2024/01/11 06:43:31;;;;;;;58.17;26.07;;;-2.20;99.90;;;;;;7289936;19;20743;-85
2024/01/11 06:46:03;;;;;;;57.53;26.90;;;-2.10;99.90;;;;;;7288376;19;20193;-86
2024/01/11 06:48:28;;;;;;;52.17;24.70;;;-2.10;99.90;;;;;;7295815;19;20220;-85
2024/01/11 06:50:54;;;;;;;50.60;23.37;;;-2.10;99.90;;;;;;7287385;19;20538;-84
2024/01/11 06:53:20;;;;;;;52.63;23.53;;;-2.00;99.90;;;;;;7287062;19;20189;-85
2024/01/11 06:55:47;;;;;;;56.40;23.77;;;-1.90;99.90;;;;;;7287787;19;20197;-85
2024/01/11 06:58:13;;;;;;;57.00;25.47;;;-1.90;99.90;;;;;;7285439;19;20727;-84
2024/01/11 07:00:43;;;;;;;49.83;23.47;;;-2.00;99.90;;;;;;7302325;19;20189;-82
2024/01/11 07:03:11;;;;;;;50.20;24.07;;;-2.10;99.90;;;;;;7307603;19;20725;-83
2024/01/11 07:05:38;;;;;;;52.93;24.77;;;-2.00;99.90;;;;;;7285360;19;20260;-84
2024/01/11 07:08:04;;;;;;;49.90;23.20;;;-1.90;99.90;;;;;;7285654;19;20192;-85
2024/01/11 07:10:30;;;;;;;49.97;23.30;;;-1.90;99.90;;;;;;7286291;19;20198;-84
2024/01/11 07:12:56;;;;;;;51.70;24.60;;;-1.90;99.90;;;;;;7284562;19;20195;-85
2024/01/11 07:15:22;;;;;;;53.87;23.77;;;-2.00;99.90;;;;;;7284498;19;20200;-85
2024/01/11 07:17:48;;;;;;;50.63;23.67;;;-2.00;99.90;;;;;;7285242;19;20181;-85
2024/01/11 07:20:16;;;;;;;56.00;24.83;;;-2.10;99.90;;;;;;7283881;19;20979;-84
2024/01/11 07:22:42;;;;;;;53.80;23.57;;;-2.10;99.90;;;;;;7286322;19;20652;-85
2024/01/11 07:25:08;;;;;;;52.93;24.13;;;-2.10;99.90;;;;;;7307477;19;20195;-85
2024/01/11 07:27:35;;;;;;;50.57;23.73;;;-2.10;99.90;;;;;;7285170;19;20190;-85
2024/01/11 07:30:02;;;;;;;52.43;24.13;;;-2.10;99.90;;;;;;7287530;19;20181;-85
2024/01/11 07:32:28;;;;;;;51.37;24.00;;;-2.10;99.90;;;;;;7286951;19;20199;-85
2024/01/11 07:34:54;;;;;;;54.87;24.43;;;-2.10;99.90;;;;;;7286231;19;20185;-85
2024/01/11 07:37:20;;;;;;;56.00;25.53;;;-2.20;99.90;;;;;;7284997;19;20188;-85
2024/01/11 07:39:45;;;;;;;48.23;23.57;;;-2.20;99.90;;;;;;7285056;19;20198;-84
2024/01/11 07:42:11;;;;;;;52.53;23.97;;;-2.30;99.90;;;;;;7284638;19;20657;-84
2024/01/11 07:44:37;;;;;;;54.23;24.87;;;-2.30;99.90;;;;;;7308333;19;20192;-84
2024/01/11 07:47:03;;;;;;;59.37;25.03;;;-2.30;99.90;;;;;;7285114;19;20189;-85
2024/01/11 07:49:28;;;;;;;54.70;23.87;;;-2.30;99.90;;;;;;7286608;19;20218;-86
2024/01/11 07:51:54;;;;;;;60.73;26.47;;;-2.20;99.90;;;;;;7283577;19;20266;-84
2024/01/11 07:54:20;;;;;;;55.37;24.30;;;-2.30;99.90;;;;;;7285038;19;20181;-85
2024/01/11 07:56:46;;;;;;;51.23;23.43;;;-2.30;99.90;;;;;;7284149;19;20181;-84
2024/01/11 07:59:14;;;;;;;57.17;25.97;;;-2.30;99.90;;;;;;7282103;19;20185;-85
2024/01/11 08:01:40;;;;;;;58.77;25.50;;;-2.30;99.90;;;;;;7298679;19;20185;-84
2024/01/11 08:04:06;;;;;;;52.77;25.20;;;-2.30;99.90;;;;;;7311435;19;20208;-85
2024/01/11 08:06:32;;;;;;;54.53;24.90;;;-2.40;99.90;;;;;;7285534;19;20177;-84
2024/01/11 08:08:58;;;;;;;56.40;24.93;;;-2.40;99.90;;;;;;7283219;19;20194;-84
2024/01/11 08:11:24;;;;;;;55.87;26.43;;;-2.40;99.90;;;;;;7283222;19;20216;-84
2024/01/11 08:13:50;;;;;;;56.67;23.50;;;-2.40;99.90;;;;;;7283488;19;20185;-84
2024/01/11 08:16:17;;;;;;;60.23;25.57;;;-2.30;99.90;;;;;;7285108;19;20203;-83
2024/01/11 08:18:44;;;;;;;52.97;24.90;;;-2.30;99.90;;;;;;7283444;19;20537;-84
2024/01/11 08:21:10;;;;;;;56.17;25.40;;;-2.30;99.90;;;;;;7287829;19;20321;-84
2024/01/11 08:23:44;;;;;;;53.20;24.67;;;-2.30;99.90;;;;;;7307633;19;20188;-84
2024/01/11 08:26:13;;;;;;;56.83;25.87;;;-2.30;99.90;;;;;;7270610;19;20195;-83
2024/01/11 08:28:40;;;;;;;55.17;25.20;;;-2.30;99.90;;;;;;7301736;19;20226;-83
2024/01/11 08:31:06;;;;;;;52.00;24.00;;;-2.40;99.90;;;;;;7300326;19;20189;-84
2024/01/11 08:33:32;;;;;;;54.63;26.27;;;-2.30;99.90;;;;;;7283011;19;20206;-84
2024/01/11 08:36:03;;;;;;;56.57;24.67;;;-2.40;99.90;;;;;;7282709;19;20193;-84
2024/01/11 08:38:30;;;;;;;54.13;24.50;;;-2.30;99.90;;;;;;7281331;19;20205;-84
2024/01/11 08:40:55;;;;;;;58.60;25.60;;;-2.40;99.90;;;;;;7282446;19;20598;-84
2024/01/11 08:43:21;;;;;;;54.77;24.43;;;-2.50;99.90;;;;;;7282133;19;20193;-85
2024/01/11 08:45:47;;;;;;;59.33;25.70;;;-2.50;99.90;;;;;;7280214;19;20181;-84
2024/01/11 08:48:13;;;;;;;54.17;26.13;;;-2.50;99.90;;;;;;7281248;19;20189;-83
2024/01/11 08:50:39;;;;;;;52.80;26.00;;;-2.40;99.90;;;;;;7304745;19;20193;-81
2024/01/11 08:53:05;;;;;;;60.30;27.77;;;-2.40;99.90;;;;;;7292911;19;20261;-84
2024/01/11 08:55:30;;;;;;;62.70;27.00;;;-2.50;99.90;;;;;;7286669;19;20948;-84
2024/01/11 08:57:56;;;;;;;60.43;27.53;;;-2.50;99.90;;;;;;7283564;19;20193;-84
2024/01/11 09:00:22;;;;;;;57.87;26.83;;;-2.40;99.90;;;;;;7282288;19;21026;-84
2024/01/11 09:02:49;;;;;;;57.07;26.10;;;-2.40;99.90;;;;;;7281035;19;20193;-84
2024/01/11 09:05:15;;;;;;;57.97;26.70;;;-2.20;99.90;;;;;;7281490;19;20188;-83
2024/01/11 09:07:41;;;;;;;57.47;27.37;;;-2.00;99.90;;;;;;7285051;19;20638;-83
2024/01/11 09:10:13;;;;;;;62.03;26.80;;;-1.80;99.90;;;;;;7311708;19;20195;-84
2024/01/11 09:12:39;;;;;;;69.10;28.03;;;-1.70;99.90;;;;;;7286021;19;20184;-83
2024/01/11 09:15:06;;;;;;;59.43;27.53;;;-1.80;99.90;;;;;;7302521;19;20272;-84
2024/01/11 09:17:32;;;;;;;60.67;27.30;;;-1.80;99.90;;;;;;7289511;19;20704;-84
2024/01/11 09:19:58;;;;;;;67.00;29.97;;;-1.80;99.90;;;;;;7288893;19;20950;-84
2024/01/11 09:22:24;;;;;;;63.97;29.20;;;-1.90;99.90;;;;;;7288960;19;20195;-84
2024/01/11 09:24:50;;;;;;;61.67;26.93;;;-1.70;99.90;;;;;;7289037;19;20197;-84
2024/01/11 09:27:15;;;;;;;60.10;26.83;;;-1.70;99.90;;;;;;7291083;19;20292;-84
2024/01/11 09:29:45;;;;;;;62.33;28.07;;;-1.60;99.90;;;;;;7290374;19;20280;-83
2024/01/11 09:32:11;;;;;;;63.17;28.27;;;-1.40;99.90;;;;;;7297076;19;20280;-84
2024/01/11 09:34:37;;;;;;;65.33;28.73;;;-1.30;99.90;;;;;;7319231;19;20185;-84
2024/01/11 09:37:03;;;;;;;64.90;29.13;;;-1.30;99.90;;;;;;7296173;19;20913;-84
2024/01/11 09:39:29;;;;;;;59.83;27.57;;;-1.30;99.90;;;;;;7293540;19;20233;-84
2024/01/11 09:42:11;;;;;;;59.43;28.27;;;-1.30;99.90;;;;;;7296012;19;20648;-84
2024/01/11 09:44:40;;;;;;;59.30;27.87;;;-1.20;99.90;;;;;;7289770;19;20181;-84
2024/01/11 09:47:09;;;;;;;62.27;29.37;;;-1.20;99.90;;;;;;7289100;19;20196;-84
2024/01/11 09:49:37;;;;;;;56.90;27.60;;;-1.20;99.90;;;;;;7289039;19;20189;-84
2024/01/11 09:52:05;;;;;;;57.60;27.00;;;-1.20;99.90;;;;;;7288712;19;20198;-84
2024/01/11 09:54:31;;;;;;;58.87;27.53;;;-1.30;99.90;;;;;;7284428;19;20218;-84
2024/01/11 09:56:59;;;;;;;58.43;27.73;;;-1.10;99.90;;;;;;7287432;19;20192;-84
2024/01/11 09:59:26;;;;;;;61.27;27.83;;;-1.10;99.90;;;;;;7285399;19;20180;-84
2024/01/11 10:01:52;;;;;;;62.17;27.87;;;-1.10;99.90;;;;;;7286548;19;20187;-83
2024/01/11 10:04:18;;;;;;;63.87;27.43;;;-1.00;99.90;;;;;;7287871;19;20189;-84
2024/01/11 10:06:44;;;;;;;55.17;26.07;;;-1.00;99.90;;;;;;7287040;19;20216;-84
2024/01/11 10:09:10;;;;;;;57.47;27.47;;;-1.10;99.90;;;;;;7296019;19;20180;-84
2024/01/11 10:11:37;;;;;;;60.53;26.77;;;-1.00;99.90;;;;;;7311236;19;20188;-84
2024/01/11 10:14:05;;;;;;;57.67;27.53;;;-1.00;99.90;;;;;;7286638;19;20691;-85
2024/01/11 10:16:30;;;;;;;54.77;27.60;;;-1.00;99.90;;;;;;7287306;19;20193;-83
2024/01/11 10:18:57;;;;;;;53.13;26.57;;;-1.30;99.90;;;;;;7287674;19;20189;-84
2024/01/11 10:21:24;;;;;;;56.77;27.50;;;-1.40;99.90;;;;;;7287313;19;20189;-84
2024/01/11 10:23:50;;;;;;;52.20;25.53;;;-1.30;99.90;;;;;;7288362;19;20193;-84
2024/01/11 10:26:16;;;;;;;58.10;26.90;;;-0.90;99.90;;;;;;7288618;19;20203;-84
2024/01/11 10:28:45;;;;;;;50.53;24.53;;;0.50;99.90;;;;;;7289580;19;20217;-83
2024/01/11 10:31:11;;;;;;;48.67;24.43;;;1.70;99.90;;;;;;7290355;19;20294;-84
2024/01/11 10:33:37;;;;;;;49.70;25.03;;;2.80;99.90;;;;;;7308103;19;20649;-83
2024/01/11 10:36:04;;;;;;;49.03;24.43;;;4.20;99.90;;;;;;7286847;19;20254;-84
2024/01/11 10:38:36;;;;;;;46.07;24.87;;;5.40;99.90;;;;;;7289994;19;20273;-84
2024/01/11 10:41:05;;;;;;;48.00;25.23;;;5.70;99.90;;;;;;7285385;19;20229;-84
2024/01/11 10:43:36;;;;;;;49.80;25.30;;;6.30;99.90;;;;;;7288025;19;20186;-85
2024/01/11 10:46:06;;;;;;;45.23;25.77;;;6.80;99.90;;;;;;7285268;19;20660;-85
2024/01/11 10:48:41;;;;;;;43.63;24.80;;;8.10;99.90;;;;;;7286624;19;20185;-85
2024/01/11 10:51:12;;;;;;;45.80;26.73;;;8.70;99.90;;;;;;7286577;19;20191;-85
2024/01/11 10:53:47;;;;;;;48.23;25.57;;;9.30;99.90;;;;;;7286371;19;20641;-85
2024/01/11 10:56:15;;;;;;;43.93;25.80;;;9.80;99.90;;;;;;7264097;19;20195;-85
2024/01/11 10:58:43;;;;;;;46.77;27.77;;;10.30;99.90;;;;;;7286204;19;20181;-84
2024/01/11 11:01:10;;;;;;;49.07;27.67;;;11.20;99.90;;;;;;7303154;19;20192;-85
2024/01/11 11:03:38;;;;;;;50.13;28.20;;;10.50;99.90;;;;;;7286027;19;20207;-85
2024/01/11 11:06:08;;;;;;;46.27;26.23;;;9.40;99.90;;;;;;7285861;19;20184;-85
2024/01/11 11:08:36;;;;;;;44.83;25.90;;;9.10;99.90;;;;;;7284872;19;20191;-85
2024/01/11 11:11:07;;;;;;;49.67;27.43;;;8.20;99.90;;;;;;7286377;19;20187;-84
2024/01/11 11:13:36;;;;;;;50.40;26.03;;;7.50;99.90;;;;;;7283867;19;20193;-84
2024/01/11 11:16:05;;;;;;;46.20;26.87;;;7.10;99.90;;;;;;7285038;19;20189;-84
2024/01/11 11:18:34;;;;;;;46.80;24.90;;;6.80;99.90;;;;;;7285377;19;20185;-85
2024/01/11 11:21:01;;;;;;;47.50;25.93;;;6.60;99.90;;;;;;7283936;19;20307;-84
2024/01/11 11:23:26;;;;;;;49.60;26.47;;;6.20;99.90;;;;;;7286158;19;20544;-84
2024/01/11 11:25:56;;;;;;;47.83;26.23;;;5.80;99.90;;;;;;7285804;19;20447;-84
2024/01/11 11:28:22;;;;;;;46.47;23.87;;;6.00;99.90;;;;;;7283758;19;20854;-84
2024/01/11 11:30:50;;;;;;;47.43;26.07;;;6.40;99.90;;;;;;7283677;19;20195;-84
2024/01/11 11:33:25;;;;;;;48.47;26.13;;;6.60;99.90;;;;;;7283823;19;20185;-84
2024/01/11 11:36:00;;;;;;;45.67;24.70;;;6.50;99.90;;;;;;7285023;19;20197;-84
2024/01/11 11:38:31;;;;;;;47.67;26.30;;;6.90;99.90;;;;;;7284348;19;20183;-84
2024/01/11 11:40:58;;;;;;;46.07;25.43;;;6.90;99.90;;;;;;7284164;19;20192;-85
2024/01/11 11:43:27;;;;;;;50.03;26.23;;;6.60;99.90;;;;;;7284312;19;20200;-84
2024/01/11 11:45:53;;;;;;;47.47;24.00;;;6.20;99.90;;;;;;7283547;19;20185;-84
2024/01/11 11:48:36;;;;;;;45.03;24.57;;;5.80;99.90;;;;;;7282852;19;20203;-84
2024/01/11 11:51:05;;;;;;;47.27;24.83;;;6.10;99.90;;;;;;7284360;19;20185;-83
2024/01/11 11:53:36;;;;;;;45.43;24.87;;;5.80;99.90;;;;;;7284922;19;20175;-84
2024/01/11 11:56:02;;;;;;;41.37;24.67;;;5.50;99.90;;;;;;7283668;19;21023;-84
2024/01/11 11:58:32;;;;;;;46.30;23.83;;;5.40;99.90;;;;;;7285658;19;20589;-84
2024/01/11 12:01:00;;;;;;;41.00;23.00;;;5.40;99.90;;;;;;7288625;19;20187;-84
2024/01/11 12:03:33;;;;;;;40.67;22.90;;;5.70;99.90;;;;;;7283155;19;20258;-84
2024/01/11 12:06:00;;;;;;;45.23;24.00;;;6.20;99.90;;;;;;7282030;19;20193;-84
2024/01/11 12:08:26;;;;;;;43.20;23.83;;;6.20;99.90;;;;;;7280207;19;20248;-84
2024/01/11 12:10:52;;;;;;;42.77;24.17;;;6.70;99.90;;;;;;7281817;19;20200;-84
2024/01/11 12:13:18;;;;;;;43.97;22.90;;;6.90;99.90;;;;;;7279820;19;20193;-84
2024/01/11 12:15:44;;;;;;;45.50;23.33;;;7.10;99.90;;;;;;7284356;19;20211;-84
2024/01/11 12:18:10;;;;;;;42.37;23.20;;;7.50;99.90;;;;;;7303331;19;20727;-85
2024/01/11 12:20:36;;;;;;;44.07;23.63;;;7.60;99.90;;;;;;7285651;19;20190;-85
2024/01/11 12:23:02;;;;;;;44.20;22.93;;;7.20;99.90;;;;;;7285379;19;20873;-84
2024/01/11 12:25:28;;;;;;;42.17;22.93;;;6.80;99.90;;;;;;7286939;19;20223;-84